Faneromeni — SVKG — position and weather

sailwx.info

Track history (hours):
 
Tides and Currents Weather Stations Pressure Air Temp Water Temp Dewpoint Dewpoint Depression Visibility Wind Speed Wind Dir Waves Ship Positions

Faneromeni

Last reported at 2015-Apr-24 19:34 UTC. Time now 2015-Apr-28 00:34 UTC.
Position N 36°00' W 005°28'.

Length 230 m; draft 8.7 m.

Type: Cargo ship. MMSI: 240576000.

Date/timePositionNaut miles runAvg speedWind from/ knotsBaromVisibWave heightAir tempDewpointWater temp
2015-Apr-24 19:34N 36°00' W 005°28'9 8.6
2015-Apr-24 18:33N 36°08' W 005°25'1 1.4
2015-Apr-24 17:32N 36°10' W 005°25'0 0.0
2015-Apr-24 16:29N 36°10' W 005°25'0 0.0
2015-Apr-24 15:32N 36°10' W 005°25'0 0.1
2015-Apr-24 14:32N 36°10' W 005°25'0 0.0
2015-Apr-24 13:32N 36°10' W 005°25'0 0.2
2015-Apr-24 12:32N 36°10' W 005°25'0 0.1
2015-Apr-24 11:32N 36°10' W 005°26'0 0.0
2015-Apr-24 10:32N 36°10' W 005°26'0 0.1
2015-Apr-24 09:32N 36°10' W 005°26'0 0.1
2015-Apr-24 08:32N 36°10' W 005°26'0 0.1
2015-Apr-24 07:32N 36°10' W 005°26'0 0.1
2015-Apr-24 06:32N 36°10' W 005°25'0 0.1
2015-Apr-24 05:32N 36°10' W 005°26'0 0.1
2015-Apr-24 04:32N 36°10' W 005°25'0 0.1
2015-Apr-24 03:32N 36°10' W 005°25'0 0.0
2015-Apr-23 23:23N 36°10' W 005°26'0 0.0
2015-Apr-23 22:29N 36°10' W 005°26'0 0.0
2015-Apr-23 21:32N 36°10' W 005°26'0 0.0
2015-Apr-23 20:29N 36°10' W 005°26'0 0.2
2015-Apr-23 19:32N 36°10' W 005°26'0 0.1
2015-Apr-23 18:32N 36°10' W 005°26'0 0.0
2015-Apr-23 17:32N 36°10' W 005°26'0 0.1
2015-Apr-23 16:32N 36°10' W 005°25'0 0.0
2015-Apr-23 15:23N 36°10' W 005°25'0 0.0
2015-Apr-23 14:11N 36°10' W 005°25'0 0.0
2015-Apr-23 13:29N 36°10' W 005°25'0 0.1
2015-Apr-23 11:23N 36°10' W 005°26'0 0.0
2015-Apr-23 09:20N 36°10' W 005°26'2 2.2
2015-Apr-23 08:25N 36°08' W 005°24'5 5.9
2015-Apr-23 07:33N 36°05' W 005°19'3 2.8
2015-Apr-23 06:33N 36°06' W 005°16'0 0.4
2015-Apr-23 05:23N 36°06' W 005°16'0 0.3
2015-Apr-23 04:06N 36°06' W 005°17'0 0.3
2015-Apr-23 03:33N 36°06' W 005°17'0 0.3
2015-Apr-23 02:20N 36°06' W 005°16'0 0.1
2015-Apr-23 01:30N 36°06' W 005°16'0 0.2
2015-Apr-23 00:33N 36°06' W 005°16'0 0.3
2015-Apr-22 23:33N 36°06' W 005°16'1 0.9
2015-Apr-22 22:33N 36°07' W 005°15'1 0.4
2015-Apr-22 21:13N 36°06' W 005°16'1 1.1
2015-Apr-22 20:33N 36°07' W 005°17'1 0.7
2015-Apr-22 19:33N 36°06' W 005°17'1 0.5
2015-Apr-22 18:33N 36°06' W 005°17'1 0.6
2015-Apr-22 17:33N 36°06' W 005°16'0 0.4
2015-Apr-22 16:33N 36°07' W 005°16'3 2.6
2015-Apr-22 15:33N 36°06' W 005°19'0 0.4
2015-Apr-22 14:33N 36°06' W 005°18'0 0.4
2015-Apr-22 13:33N 36°06' W 005°18'0 0.4
2015-Apr-22 12:33N 36°05' W 005°18'1 0.5
2015-Apr-22 11:33N 36°05' W 005°18'0 0.5
2015-Apr-22 10:31N 36°06' W 005°18'1 0.8
2015-Apr-22 09:33N 36°06' W 005°18'0 0.3
2015-Apr-22 08:33N 36°05' W 005°18'1 1.2
2015-Apr-22 07:27N 36°04' W 005°19'1 0.8
2015-Apr-22 06:27N 36°04' W 005°18'1 0.9
2015-Apr-22 05:33N 36°05' W 005°18'0 0.5
2015-Apr-22 04:33N 36°05' W 005°18'2 1.7
2015-Apr-22 03:33N 36°07' W 005°17'2 1.6
2015-Apr-22 02:32N 36°08' W 005°17'1 1.1
2015-Apr-22 01:32N 36°08' W 005°18'0 0.0
2015-Apr-22 00:32N 36°08' W 005°18'0 0.0
2015-Apr-21 23:26N 36°08' W 005°18'0 0.0
2015-Apr-21 22:32N 36°08' W 005°18'0 0.0
2015-Apr-21 21:32N 36°08' W 005°18'0 0.0
2015-Apr-21 20:32N 36°08' W 005°18'0 0.0
2015-Apr-21 19:32N 36°08' W 005°18'0 0.1
2015-Apr-21 18:32N 36°08' W 005°18'0 0.0
2015-Apr-21 17:32N 36°08' W 005°18'0 0.1
2015-Apr-21 16:26N 36°08' W 005°18'0 0.0
2015-Apr-21 15:29N 36°08' W 005°18'0 0.0
2015-Apr-21 14:29N 36°08' W 005°18'0 0.0
2015-Apr-21 13:32N 36°08' W 005°18'0 0.0
2015-Apr-21 12:32N 36°08' W 005°18'0 0.0
2015-Apr-21 11:32N 36°08' W 005°18'0 0.0
2015-Apr-21 10:32N 36°08' W 005°18'0 0.0
2015-Apr-21 09:32N 36°08' W 005°18'0 0.0
2015-Apr-21 08:32N 36°08' W 005°18'0 0.0
2015-Apr-21 07:32N 36°08' W 005°18'0 0.1
2015-Apr-21 06:32N 36°08' W 005°18'0 0.0
2015-Apr-21 05:27N 36°08' W 005°18'0 0.1
2015-Apr-21 04:32N 36°08' W 005°18'0 0.1
2015-Apr-21 03:29N 36°08' W 005°18'0 0.0
2015-Apr-21 02:29N 36°08' W 005°18'0 0.0
2015-Apr-21 01:23N 36°08' W 005°18'0 0.0
2015-Apr-21 00:32N 36°08' W 005°18'0 0.0
2015-Apr-20 23:05N 36°08' W 005°18'0 0.0
2015-Apr-20 22:29N 36°08' W 005°18'0 0.0
2015-Apr-20 20:14N 36°08' W 005°18'0 0.0
2015-Apr-20 19:08N 36°08' W 005°18'0 0.1
2015-Apr-20 18:32N 36°08' W 005°18'1 0.8
2015-Apr-20 17:33N 36°07' W 005°18'4 4.2
2015-Apr-20 16:33N 36°08' W 005°23'0 0.2
2015-Apr-20 15:29N 36°08' W 005°23'0 0.1
2015-Apr-20 14:29N 36°08' W 005°23'0 0.1
2015-Apr-20 13:20N 36°08' W 005°23'0 0.1
2015-Apr-20 12:29N 36°08' W 005°23'0 0.0
2015-Apr-20 05:32N 36°08' W 005°23'0 0.2
2015-Apr-20 04:32N 36°08' W 005°23'3 3.2
2015-Apr-20 03:33N 36°05' W 005°21'8 8.0
2015-Apr-20 02:33N 36°05' W 005°11'200 9.5
2015-Apr-19 05:31N 37°06' W 001°14'1212.3
2015-Apr-19 04:33N 37°14' W 001°03'1212.3
2015-Apr-19 03:33N 37°22' W 000°51'1212.2
2015-Apr-19 02:33N 37°30' W 000°39'1212.0
2015-Apr-19 01:33N 37°39' W 000°29'1211.9
2015-Apr-19 00:33N 37°49' W 000°21'1211.9
2015-Apr-18 23:33N 37°59' W 000°13'1312.0
2015-Apr-18 22:29N 38°10' W 000°04'1112.1
2015-Apr-18 21:33N 38°19' E 000°04'1412.2
2015-Apr-18 20:25N 38°31' E 000°13'1011.7
2015-Apr-18 19:32N 38°40' E 000°21'1111.3
2015-Apr-18 18:33N 38°48' E 000°29'1211.7
2015-Apr-18 17:33N 38°58' E 000°38'1211.8
2015-Apr-18 16:33N 39°07' E 000°48'1212.0
2015-Apr-18 15:33N 39°16' E 000°58'1612.0
2015-Apr-18 14:15N 39°29' E 001°10'1311.8
2015-Apr-18 13:08N 39°40' E 001°20'712.1
2015-Apr-18 12:33N 39°45' E 001°25'1211.9
2015-Apr-18 11:33N 39°55' E 001°34'1212.1
2015-Apr-18 10:33N 40°04' E 001°44'1212.1
2015-Apr-18 09:33N 40°14' E 001°53'1212.3
2015-Apr-18 08:33N 40°24' E 002°02'1212.3
2015-Apr-18 07:33N 40°34' E 002°13'1312.6
2015-Apr-18 06:33N 40°43' E 002°23'1212.5
2015-Apr-18 05:33N 40°53' E 002°33'1211.9
2015-Apr-18 04:33N 41°03' E 002°43'1212.3
2015-Apr-18 03:33N 41°13' E 002°53'1313.0
2015-Apr-18 02:33N 41°23' E 003°03'1312.9
2015-Apr-18 01:33N 41°33' E 003°14'1312.8
2015-Apr-18 00:32N 41°44' E 003°24'2613.0
2015-Apr-17 22:33N 42°04' E 003°46'1312.5
2015-Apr-17 21:30N 42°14' E 003°57'1111.2
2015-Apr-17 20:33N 42°22' E 004°06'1411.7
2015-Apr-17 19:21N 42°33' E 004°18'911.6
2015-Apr-17 18:33N 42°40' E 004°26'1412.2
2015-Apr-17 17:26N 42°51' E 004°38'1112.0
2015-Apr-17 16:33N 42°59' E 004°47'1411.0
2015-Apr-17 15:15N 43°10' E 004°59'6 9.1
2015-Apr-17 14:34N 43°17' E 004°59'9 9.1
2015-Apr-17 13:33N 43°24' E 004°53'1 0.7
2015-Apr-17 12:32N 43°25' E 004°52'0 0.0
2015-Apr-17 11:32N 43°25' E 004°52'0 0.0
2015-Apr-17 10:32N 43°25' E 004°52'0 0.0
2015-Apr-17 09:32N 43°25' E 004°52'0 0.0
2015-Apr-17 08:26N 43°25' E 004°52'0 0.0
2015-Apr-17 07:32N 43°25' E 004°52'0 0.0
2015-Apr-17 06:32N 43°25' E 004°52'0 0.0
2015-Apr-17 05:32N 43°25' E 004°52'0 0.0
2015-Apr-17 04:29N 43°25' E 004°52'0 0.0
2015-Apr-17 03:32N 43°25' E 004°52'0 0.0
2015-Apr-17 02:32N 43°25' E 004°52'0 0.0
2015-Apr-17 01:29N 43°25' E 004°52'0 0.0
2015-Apr-17 00:32N 43°25' E 004°52'0 0.0
2015-Apr-16 23:32N 43°25' E 004°52'0 0.0
2015-Apr-16 22:26N 43°25' E 004°52'0 0.0
2015-Apr-16 21:32N 43°25' E 004°52'0 0.0
2015-Apr-16 20:32N 43°25' E 004°52'0 0.0
2015-Apr-16 19:32N 43°25' E 004°52'0 0.0
2015-Apr-16 18:32N 43°25' E 004°52'0 0.0
2015-Apr-16 17:33N 43°25' E 004°52'0 0.0
2015-Apr-16 16:32N 43°25' E 004°52'0 0.0
2015-Apr-16 15:32N 43°25' E 004°52'0 0.0
2015-Apr-16 14:32N 43°25' E 004°52'0 0.0
2015-Apr-16 13:32N 43°25' E 004°52'0 0.0
2015-Apr-16 12:32N 43°25' E 004°52'0 0.0
2015-Apr-16 11:32N 43°25' E 004°52'0 0.0
2015-Apr-16 10:32N 43°25' E 004°52'0 0.0
2015-Apr-16 09:32N 43°25' E 004°52'0 0.0
2015-Apr-16 08:32N 43°25' E 004°52'0 0.0
2015-Apr-16 07:32N 43°25' E 004°52'0 0.0
2015-Apr-16 06:29N 43°25' E 004°52'0 0.0
2015-Apr-16 05:32N 43°25' E 004°52'0 0.0
2015-Apr-16 04:26N 43°25' E 004°52'0 0.0
2015-Apr-16 03:29N 43°25' E 004°52'0 0.0
2015-Apr-16 02:32N 43°25' E 004°52'0 0.0
2015-Apr-16 01:32N 43°25' E 004°52'0 0.0
2015-Apr-16 00:32N 43°25' E 004°52'0 0.0
2015-Apr-15 23:32N 43°25' E 004°52'0 0.0
2015-Apr-15 22:29N 43°25' E 004°52'0 0.0
2015-Apr-15 21:32N 43°25' E 004°52'0 0.0
2015-Apr-15 20:32N 43°25' E 004°52'0 0.0
2015-Apr-15 19:29N 43°25' E 004°52'0 0.0
2015-Apr-15 18:29N 43°25' E 004°52'0 0.0
2015-Apr-15 17:32N 43°25' E 004°52'0 0.0
2015-Apr-15 16:32N 43°25' E 004°52'0 0.0
2015-Apr-15 15:32N 43°25' E 004°52'0 0.0
2015-Apr-15 14:26N 43°25' E 004°52'0 0.0
2015-Apr-15 13:32N 43°25' E 004°52'0 0.0
2015-Apr-15 12:32N 43°25' E 004°52'0 0.0
2015-Apr-15 11:29N 43°25' E 004°52'0 0.0
2015-Apr-15 10:32N 43°25' E 004°52'0 0.0
2015-Apr-15 09:32N 43°25' E 004°52'0 0.0
2015-Apr-15 08:32N 43°25' E 004°52'0 0.0
2015-Apr-15 07:32N 43°25' E 004°52'0 0.0
2015-Apr-15 06:32N 43°25' E 004°52'0 0.0
2015-Apr-15 05:32N 43°25' E 004°52'0 0.0
2015-Apr-15 04:32N 43°25' E 004°52'0 0.0
2015-Apr-15 03:29N 43°25' E 004°52'0 0.0
2015-Apr-15 02:26N 43°25' E 004°52'0 0.0
2015-Apr-15 01:23N 43°25' E 004°52'0 0.0
2015-Apr-15 00:32N 43°25' E 004°52'0 0.0
2015-Apr-14 23:32N 43°25' E 004°52'0 0.0
2015-Apr-14 22:32N 43°25' E 004°52'0 0.0
2015-Apr-14 21:32N 43°25' E 004°52'0 0.0
2015-Apr-14 20:32N 43°25' E 004°52'  
Track history (hours):
 
Tides and Currents Weather Stations Pressure Air Temp Water Temp Dewpoint Dewpoint Depression Visibility Wind Speed Wind Dir Waves Ship Positions

Faneromeni

Last reported at 2015-Apr-24 19:34 UTC. Time now 2015-Apr-28 00:34 UTC.
Position N 36°00' W 005°28'.

Length 230 m; draft 8.7 m.

Type: Cargo ship. MMSI: 240576000.

Date/timePositionNaut miles runAvg speedWind from/ knotsBaromVisibWave heightAir tempDewpointWater temp
2015-Apr-24 19:34N 36°00' W 005°28'9 8.6
2015-Apr-24 18:33N 36°08' W 005°25'1 1.4
2015-Apr-24 17:32N 36°10' W 005°25'0 0.0
2015-Apr-24 16:29N 36°10' W 005°25'0 0.0
2015-Apr-24 15:32N 36°10' W 005°25'0 0.1
2015-Apr-24 14:32N 36°10' W 005°25'0 0.0
2015-Apr-24 13:32N 36°10' W 005°25'0 0.2
2015-Apr-24 12:32N 36°10' W 005°25'0 0.1
2015-Apr-24 11:32N 36°10' W 005°26'0 0.0
2015-Apr-24 10:32N 36°10' W 005°26'0 0.1
2015-Apr-24 09:32N 36°10' W 005°26'0 0.1
2015-Apr-24 08:32N 36°10' W 005°26'0 0.1
2015-Apr-24 07:32N 36°10' W 005°26'0 0.1
2015-Apr-24 06:32N 36°10' W 005°25'0 0.1
2015-Apr-24 05:32N 36°10' W 005°26'0 0.1
2015-Apr-24 04:32N 36°10' W 005°25'0 0.1
2015-Apr-24 03:32N 36°10' W 005°25'0 0.0
2015-Apr-23 23:23N 36°10' W 005°26'0 0.0
2015-Apr-23 22:29N 36°10' W 005°26'0 0.0
2015-Apr-23 21:32N 36°10' W 005°26'0 0.0
2015-Apr-23 20:29N 36°10' W 005°26'0 0.2
2015-Apr-23 19:32N 36°10' W 005°26'0 0.1
2015-Apr-23 18:32N 36°10' W 005°26'0 0.0
2015-Apr-23 17:32N 36°10' W 005°26'0 0.1
2015-Apr-23 16:32N 36°10' W 005°25'0 0.0
2015-Apr-23 15:23N 36°10' W 005°25'0 0.0
2015-Apr-23 14:11N 36°10' W 005°25'0 0.0
2015-Apr-23 13:29N 36°10' W 005°25'0 0.1
2015-Apr-23 11:23N 36°10' W 005°26'0 0.0
2015-Apr-23 09:20N 36°10' W 005°26'2 2.2
2015-Apr-23 08:25N 36°08' W 005°24'5 5.9
2015-Apr-23 07:33N 36°05' W 005°19'3 2.8
2015-Apr-23 06:33N 36°06' W 005°16'0 0.4
2015-Apr-23 05:23N 36°06' W 005°16'0 0.3
2015-Apr-23 04:06N 36°06' W 005°17'0 0.3
2015-Apr-23 03:33N 36°06' W 005°17'0 0.3
2015-Apr-23 02:20N 36°06' W 005°16'0 0.1
2015-Apr-23 01:30N 36°06' W 005°16'0 0.2
2015-Apr-23 00:33N 36°06' W 005°16'0 0.3
2015-Apr-22 23:33N 36°06' W 005°16'1 0.9
2015-Apr-22 22:33N 36°07' W 005°15'1 0.4
2015-Apr-22 21:13N 36°06' W 005°16'1 1.1
2015-Apr-22 20:33N 36°07' W 005°17'1 0.7
2015-Apr-22 19:33N 36°06' W 005°17'1 0.5
2015-Apr-22 18:33N 36°06' W 005°17'1 0.6
2015-Apr-22 17:33N 36°06' W 005°16'0 0.4
2015-Apr-22 16:33N 36°07' W 005°16'3 2.6
2015-Apr-22 15:33N 36°06' W 005°19'0 0.4
2015-Apr-22 14:33N 36°06' W 005°18'0 0.4
2015-Apr-22 13:33N 36°06' W 005°18'0 0.4
2015-Apr-22 12:33N 36°05' W 005°18'1 0.5
2015-Apr-22 11:33N 36°05' W 005°18'0 0.5
2015-Apr-22 10:31N 36°06' W 005°18'1 0.8
2015-Apr-22 09:33N 36°06' W 005°18'0 0.3
2015-Apr-22 08:33N 36°05' W 005°18'1 1.2
2015-Apr-22 07:27N 36°04' W 005°19'1 0.8
2015-Apr-22 06:27N 36°04' W 005°18'1 0.9
2015-Apr-22 05:33N 36°05' W 005°18'0 0.5
2015-Apr-22 04:33N 36°05' W 005°18'2 1.7
2015-Apr-22 03:33N 36°07' W 005°17'2 1.6
2015-Apr-22 02:32N 36°08' W 005°17'1 1.1
2015-Apr-22 01:32N 36°08' W 005°18'0 0.0
2015-Apr-22 00:32N 36°08' W 005°18'0 0.0
2015-Apr-21 23:26N 36°08' W 005°18'0 0.0
2015-Apr-21 22:32N 36°08' W 005°18'0 0.0
2015-Apr-21 21:32N 36°08' W 005°18'0 0.0
2015-Apr-21 20:32N 36°08' W 005°18'0 0.0
2015-Apr-21 19:32N 36°08' W 005°18'0 0.1
2015-Apr-21 18:32N 36°08' W 005°18'0 0.0
2015-Apr-21 17:32N 36°08' W 005°18'0 0.1
2015-Apr-21 16:26N 36°08' W 005°18'0 0.0
2015-Apr-21 15:29N 36°08' W 005°18'0 0.0
2015-Apr-21 14:29N 36°08' W 005°18'0 0.0
2015-Apr-21 13:32N 36°08' W 005°18'0 0.0
2015-Apr-21 12:32N 36°08' W 005°18'0 0.0
2015-Apr-21 11:32N 36°08' W 005°18'0 0.0
2015-Apr-21 10:32N 36°08' W 005°18'0 0.0
2015-Apr-21 09:32N 36°08' W 005°18'0 0.0
2015-Apr-21 08:32N 36°08' W 005°18'0 0.0
2015-Apr-21 07:32N 36°08' W 005°18'0 0.1
2015-Apr-21 06:32N 36°08' W 005°18'0 0.0
2015-Apr-21 05:27N 36°08' W 005°18'0 0.1
2015-Apr-21 04:32N 36°08' W 005°18'0 0.1
2015-Apr-21 03:29N 36°08' W 005°18'0 0.0
2015-Apr-21 02:29N 36°08' W 005°18'0 0.0
2015-Apr-21 01:23N 36°08' W 005°18'0 0.0
2015-Apr-21 00:32N 36°08' W 005°18'0 0.0
2015-Apr-20 23:05N 36°08' W 005°18'0 0.0
2015-Apr-20 22:29N 36°08' W 005°18'0 0.0
2015-Apr-20 20:14N 36°08' W 005°18'0 0.0
2015-Apr-20 19:08N 36°08' W 005°18'0 0.1
2015-Apr-20 18:32N 36°08' W 005°18'1 0.8
2015-Apr-20 17:33N 36°07' W 005°18'4 4.2
2015-Apr-20 16:33N 36°08' W 005°23'0 0.2
2015-Apr-20 15:29N 36°08' W 005°23'0 0.1
2015-Apr-20 14:29N 36°08' W 005°23'0 0.1
2015-Apr-20 13:20N 36°08' W 005°23'0 0.1
2015-Apr-20 12:29N 36°08' W 005°23'0 0.0
2015-Apr-20 05:32N 36°08' W 005°23'0 0.2
2015-Apr-20 04:32N 36°08' W 005°23'3 3.2
2015-Apr-20 03:33N 36°05' W 005°21'8 8.0
2015-Apr-20 02:33N 36°05' W 005°11'200 9.5
2015-Apr-19 05:31N 37°06' W 001°14'1212.3
2015-Apr-19 04:33N 37°14' W 001°03'1212.3
2015-Apr-19 03:33N 37°22' W 000°51'1212.2
2015-Apr-19 02:33N 37°30' W 000°39'1212.0
2015-Apr-19 01:33N 37°39' W 000°29'1211.9
2015-Apr-19 00:33N 37°49' W 000°21'1211.9
2015-Apr-18 23:33N 37°59' W 000°13'1312.0
2015-Apr-18 22:29N 38°10' W 000°04'1112.1
2015-Apr-18 21:33N 38°19' E 000°04'1412.2
2015-Apr-18 20:25N 38°31' E 000°13'1011.7
2015-Apr-18 19:32N 38°40' E 000°21'1111.3
2015-Apr-18 18:33N 38°48' E 000°29'1211.7
2015-Apr-18 17:33N 38°58' E 000°38'1211.8
2015-Apr-18 16:33N 39°07' E 000°48'1212.0
2015-Apr-18 15:33N 39°16' E 000°58'1612.0
2015-Apr-18 14:15N 39°29' E 001°10'1311.8
2015-Apr-18 13:08N 39°40' E 001°20'712.1
2015-Apr-18 12:33N 39°45' E 001°25'1211.9
2015-Apr-18 11:33N 39°55' E 001°34'1212.1
2015-Apr-18 10:33N 40°04' E 001°44'1212.1
2015-Apr-18 09:33N 40°14' E 001°53'1212.3
2015-Apr-18 08:33N 40°24' E 002°02'1212.3
2015-Apr-18 07:33N 40°34' E 002°13'1312.6
2015-Apr-18 06:33N 40°43' E 002°23'1212.5
2015-Apr-18 05:33N 40°53' E 002°33'1211.9
2015-Apr-18 04:33N 41°03' E 002°43'1212.3
2015-Apr-18 03:33N 41°13' E 002°53'1313.0
2015-Apr-18 02:33N 41°23' E 003°03'1312.9
2015-Apr-18 01:33N 41°33' E 003°14'1312.8
2015-Apr-18 00:32N 41°44' E 003°24'2613.0
2015-Apr-17 22:33N 42°04' E 003°46'1312.5
2015-Apr-17 21:30N 42°14' E 003°57'1111.2
2015-Apr-17 20:33N 42°22' E 004°06'1411.7
2015-Apr-17 19:21N 42°33' E 004°18'911.6
2015-Apr-17 18:33N 42°40' E 004°26'1412.2
2015-Apr-17 17:26N 42°51' E 004°38'1112.0
2015-Apr-17 16:33N 42°59' E 004°47'1411.0
2015-Apr-17 15:15N 43°10' E 004°59'6 9.1
2015-Apr-17 14:34N 43°17' E 004°59'9 9.1
2015-Apr-17 13:33N 43°24' E 004°53'1 0.7
2015-Apr-17 12:32N 43°25' E 004°52'0 0.0
2015-Apr-17 11:32N 43°25' E 004°52'0 0.0
2015-Apr-17 10:32N 43°25' E 004°52'0 0.0
2015-Apr-17 09:32N 43°25' E 004°52'0 0.0
2015-Apr-17 08:26N 43°25' E 004°52'0 0.0
2015-Apr-17 07:32N 43°25' E 004°52'0 0.0
2015-Apr-17 06:32N 43°25' E 004°52'0 0.0
2015-Apr-17 05:32N 43°25' E 004°52'0 0.0
2015-Apr-17 04:29N 43°25' E 004°52'0 0.0
2015-Apr-17 03:32N 43°25' E 004°52'0 0.0
2015-Apr-17 02:32N 43°25' E 004°52'0 0.0
2015-Apr-17 01:29N 43°25' E 004°52'0 0.0
2015-Apr-17 00:32N 43°25' E 004°52'0 0.0
2015-Apr-16 23:32N 43°25' E 004°52'0 0.0
2015-Apr-16 22:26N 43°25' E 004°52'0 0.0
2015-Apr-16 21:32N 43°25' E 004°52'0 0.0
2015-Apr-16 20:32N 43°25' E 004°52'0 0.0
2015-Apr-16 19:32N 43°25' E 004°52'0 0.0
2015-Apr-16 18:32N 43°25' E 004°52'0 0.0
2015-Apr-16 17:33N 43°25' E 004°52'0 0.0
2015-Apr-16 16:32N 43°25' E 004°52'0 0.0
2015-Apr-16 15:32N 43°25' E 004°52'0 0.0
2015-Apr-16 14:32N 43°25' E 004°52'0 0.0
2015-Apr-16 13:32N 43°25' E 004°52'0 0.0
2015-Apr-16 12:32N 43°25' E 004°52'0 0.0
2015-Apr-16 11:32N 43°25' E 004°52'0 0.0
2015-Apr-16 10:32N 43°25' E 004°52'0 0.0
2015-Apr-16 09:32N 43°25' E 004°52'0 0.0
2015-Apr-16 08:32N 43°25' E 004°52'0 0.0
2015-Apr-16 07:32N 43°25' E 004°52'0 0.0
2015-Apr-16 06:29N 43°25' E 004°52'0 0.0
2015-Apr-16 05:32N 43°25' E 004°52'0 0.0
2015-Apr-16 04:26N 43°25' E 004°52'0 0.0
2015-Apr-16 03:29N 43°25' E 004°52'0 0.0
2015-Apr-16 02:32N 43°25' E 004°52'0 0.0
2015-Apr-16 01:32N 43°25' E 004°52'0 0.0
2015-Apr-16 00:32N 43°25' E 004°52'0 0.0
2015-Apr-15 23:32N 43°25' E 004°52'0 0.0
2015-Apr-15 22:29N 43°25' E 004°52'0 0.0
2015-Apr-15 21:32N 43°25' E 004°52'0 0.0
2015-Apr-15 20:32N 43°25' E 004°52'0 0.0
2015-Apr-15 19:29N 43°25' E 004°52'0 0.0
2015-Apr-15 18:29N 43°25' E 004°52'0 0.0
2015-Apr-15 17:32N 43°25' E 004°52'0 0.0
2015-Apr-15 16:32N 43°25' E 004°52'0 0.0
2015-Apr-15 15:32N 43°25' E 004°52'0 0.0
2015-Apr-15 14:26N 43°25' E 004°52'0 0.0
2015-Apr-15 13:32N 43°25' E 004°52'0 0.0
2015-Apr-15 12:32N 43°25' E 004°52'0 0.0
2015-Apr-15 11:29N 43°25' E 004°52'0 0.0
2015-Apr-15 10:32N 43°25' E 004°52'0 0.0
2015-Apr-15 09:32N 43°25' E 004°52'0 0.0
2015-Apr-15 08:32N 43°25' E 004°52'0 0.0
2015-Apr-15 07:32N 43°25' E 004°52'0 0.0
2015-Apr-15 06:32N 43°25' E 004°52'0 0.0
2015-Apr-15 05:32N 43°25' E 004°52'0 0.0
2015-Apr-15 04:32N 43°25' E 004°52'0 0.0
2015-Apr-15 03:29N 43°25' E 004°52'0 0.0
2015-Apr-15 02:26N 43°25' E 004°52'0 0.0
2015-Apr-15 01:23N 43°25' E 004°52'0 0.0
2015-Apr-15 00:32N 43°25' E 004°52'0 0.0
2015-Apr-14 23:32N 43°25' E 004°52'0 0.0
2015-Apr-14 22:32N 43°25' E 004°52'0 0.0
2015-Apr-14 21:32N 43°25' E 004°52'0 0.0
2015-Apr-14 20:32N 43°25' E 004°52'  

Dump ship's entire track history